Silesia, Montana
Current Conditions -  °F | °C
As of 2:53 AM on Thursday 29 Jan 2015 (Local Time) from KBIL Reporting Station
Clear Clear  
Wind Chill: 28°   Ceiling: Unl
Heat Index: 33°   Visibility: 10mi
Dew Point: 26°   Wind: 6mph
Humidity: 75%   Direction: 190°S
Pressure: 30.42"   Gusts: NA
Location:  45.5061°N, 109.005°W
Report Text: KBIL 290953Z 19005KT 10SM CLR 01/M03 A3042 RMK AO2 SLP317 T00061033
Loading
Personal Weather Stations






























Interactive Weather Map New forecast layout! Learn more

10-Day Weather Forecast

Advertisements
Track Severe Weather on mobile